This is the latest recevied weather packets stored in our database for station/object KE7KUS-14. If no packets are shown the sender has not sent any weather packets the latest 10 day(s).
| Time | Temp. | Humidity | Pressure | Rain* | Wind** | Luminosity | Snow |
|---|---|---|---|---|---|---|---|
| 1777593764 | 12.22° C | 59% | 1021.8 hPa | 0 mm | - | 106 W/m² | - |
| 1777591361 | 13.33° C | 48% | 1021.7 hPa | 0 mm | - | 71 W/m² | - |
| 1777581747 | 14.44° C | 41% | 1022.9 hPa | 0 mm | - | 217 W/m² | - |
| 1777581163 | 13.89° C | 42% | 1022.6 hPa | 0 mm | - | 225 W/m² | - |
| 1777580578 | 14.44° C | 41% | 1022.9 hPa | 0 mm | - | 280 W/m² | - |
| 1777572783 | 13.89° C | 38% | 1023.9 hPa | 0 mm | - | 230 W/m² | - |
| 1777571486 | 14.44° C | 37% | 1024.2 hPa | 0 mm | - | 264 W/m² | - |
| 1777569668 | 14.44° C | 34% | 1024.3 hPa | 0 mm | - | 281 W/m² | - |
| 1777564925 | 13.89° C | 31% | 1024.1 hPa | 0 mm | - | 152 W/m² | - |
| 1777563107 | 14.44° C | 27% | 1024.6 hPa | 0 mm | - | 103 W/m² | - |
| 1777561288 | 15° C | 21% | 1025 hPa | 0 mm | - | 147 W/m² | - |
| 1777560118 | 15° C | 21% | 1024.6 hPa | 0 mm | - | 222 W/m² | - |
| 1777557151 | 14.44° C | 22% | 1023.8 hPa | 0 mm | - | 111 W/m² | - |
| 1777556502 | 13.89° C | 23% | 1024 hPa | 0 mm | - | 79 W/m² | - |
| 1777554077 | 12.78° C | 23% | 1023.8 hPa | 0 mm | - | 22 W/m² | - |
| 1777549919 | 13.33° C | 20% | 1023.6 hPa | 0 mm | - | 0 W/m² | - |
| 1777549335 | 13.89° C | 20% | 1023.9 hPa | 0 mm | - | 0 W/m² | - |
| 1777543317 | 15° C | 19% | 1024.3 hPa | 0 mm | - | 0 W/m² | - |
| 1777542711 | 15° C | 19% | 1024.5 hPa | 0 mm | - | 0 W/m² | - |
| 1777540309 | 15° C | 18% | 1024.2 hPa | 0 mm | - | 0 W/m² | - |
| 1777537341 | 15.56° C | 17% | 1024.6 hPa | 0 mm | - | 0 W/m² | - |
| 1777532510 | 15.56° C | 15% | 1025.8 hPa | 0 mm | - | 0 W/m² | - |
| 1777529516 | 15° C | 17% | 1025.7 hPa | 0 mm | - | 0 W/m² | - |
| 1777528932 | 15.56° C | 16% | 1025.8 hPa | 0 mm | - | 0 W/m² | - |
| 1777526528 | 16.11° C | 16% | 1025.9 hPa | 0 mm | - | 0 W/m² | - |
* Rain latest hour (hover to see other rain measurements)
** Current wind speed in m/s (hover to see current wind gust speed)